createdAt,value
2019-06-08T00:00:15.238Z,14.24
2019-06-08T00:02:45.745Z,14.25
2019-06-08T00:05:14.835Z,14.29
2019-06-08T00:07:43.414Z,14.31
2019-06-08T00:10:12.725Z,14.32
2019-06-08T00:12:41.232Z,14.27
2019-06-08T00:15:10.198Z,14.33
2019-06-08T00:17:39.385Z,14.26
2019-06-08T00:20:08.338Z,14.21
2019-06-08T00:22:36.808Z,14.30
2019-06-08T00:25:06.803Z,14.24
2019-06-08T00:27:35.313Z,14.24
2019-06-08T00:30:06.128Z,14.17
2019-06-08T00:32:33.997Z,14.15
2019-06-08T00:35:04.581Z,14.14
2019-06-08T00:37:33.023Z,14.02
2019-06-08T00:40:01.518Z,14.10
2019-06-08T00:42:29.988Z,14.07
2019-06-08T00:44:58.511Z,14.11
2019-06-08T00:47:44.974Z,14.11
2019-06-08T00:49:57.150Z,14.07
2019-06-08T00:52:25.662Z,14.12
2019-06-08T00:54:54.139Z,14.07
2019-06-08T00:57:23.853Z,14.05
2019-06-08T00:59:52.466Z,14.06
2019-06-08T01:02:20.970Z,14.05
2019-06-08T01:04:49.470Z,14.14
2019-06-08T01:07:18.036Z,14.15
2019-06-08T01:09:50.816Z,14.15
2019-06-08T01:12:20.502Z,14.13
2019-06-08T01:14:49.773Z,14.17
2019-06-08T01:17:19.273Z,14.18
2019-06-08T01:19:47.820Z,14.22
2019-06-08T01:22:16.296Z,14.29
2019-06-08T01:24:44.749Z,14.22
2019-06-08T01:27:13.183Z,14.19
2019-06-08T01:29:44.713Z,14.12
2019-06-08T01:32:13.159Z,14.09
2019-06-08T01:34:41.601Z,14.07
2019-06-08T01:37:10.031Z,14.04
2019-06-08T01:39:38.527Z,14.01
2019-06-08T01:42:10.619Z,13.94
2019-06-08T01:44:38.984Z,13.93
2019-06-08T01:47:07.412Z,13.93
2019-06-08T01:49:35.835Z,13.93
2019-06-08T01:52:04.284Z,13.88
2019-06-08T01:54:33.336Z,13.89
2019-06-08T01:57:01.857Z,13.85
2019-06-08T01:59:32.556Z,13.85
2019-06-08T02:02:08.520Z,13.90
2019-06-08T02:04:37.050Z,13.80
2019-06-08T02:07:05.616Z,13.83
2019-06-08T02:09:34.884Z,13.86
2019-06-08T02:12:03.425Z,13.88
2019-06-08T02:14:33.168Z,13.97
2019-06-08T02:17:01.739Z,14.00
2019-06-08T02:19:30.556Z,14.02
2019-06-08T02:21:59.121Z,14.07
2019-06-08T02:24:27.568Z,14.08
2019-06-08T02:26:56.035Z,14.10
2019-06-08T02:29:24.518Z,14.06
2019-06-08T02:31:53.020Z,14.11
2019-06-08T02:34:21.480Z,14.10
2019-06-08T02:36:50.004Z,14.01
2019-06-08T02:39:18.455Z,13.91
2019-06-08T02:41:46.905Z,13.86
2019-06-08T02:44:15.441Z,13.79
2019-06-08T02:46:43.991Z,13.66
2019-06-08T02:49:12.466Z,13.69
2019-06-08T02:51:41.257Z,13.59
2019-06-08T02:54:10.543Z,13.61
2019-06-08T02:56:41.588Z,13.60
2019-06-08T02:59:13.107Z,13.51
2019-06-08T03:01:43.116Z,13.51
2019-06-08T03:04:12.980Z,13.44
2019-06-08T03:06:43.593Z,13.53
2019-06-08T03:09:12.143Z,13.43
2019-06-08T03:11:44.554Z,13.40
2019-06-08T03:14:13.651Z,13.41
2019-06-08T03:16:43.305Z,13.38
2019-06-08T03:19:21.569Z,13.33
2019-06-08T03:21:44.518Z,13.32
2019-06-08T03:24:13.005Z,13.30
2019-06-08T03:26:43.884Z,13.30
2019-06-08T03:29:11.713Z,13.23
2019-06-08T03:31:49.692Z,13.26
2019-06-08T03:34:10.425Z,13.30
2019-06-08T03:36:46.382Z,13.34
2019-06-08T03:39:11.776Z,13.40
2019-06-08T03:41:40.480Z,13.46
2019-06-08T03:44:09.285Z,13.44
2019-06-08T03:46:38.813Z,13.46
2019-06-08T03:49:10.440Z,13.47
2019-06-08T03:51:43.549Z,13.49
2019-06-08T03:54:09.187Z,13.54
2019-06-08T03:56:38.049Z,13.49
2019-06-08T03:59:10.902Z,13.56
2019-06-08T04:01:39.744Z,13.58
2019-06-08T04:04:10.185Z,13.56
2019-06-08T04:06:39.873Z,13.53
2019-06-08T04:09:08.776Z,13.51
2019-06-08T04:11:37.735Z,13.52
2019-06-08T04:14:06.416Z,13.55
2019-06-08T04:16:34.946Z,13.57
2019-06-08T04:19:04.180Z,13.59
2019-06-08T04:21:32.654Z,13.60
2019-06-08T04:24:01.135Z,13.65
2019-06-08T04:26:29.693Z,13.72
2019-06-08T04:28:58.212Z,13.76
2019-06-08T04:31:26.708Z,13.67
2019-06-08T04:33:55.222Z,13.76
2019-06-08T04:36:23.670Z,13.68
2019-06-08T04:38:54.900Z,13.65
2019-06-08T04:41:23.451Z,13.61
2019-06-08T04:43:51.968Z,13.60
2019-06-08T04:46:20.550Z,13.58
2019-06-08T04:48:50.032Z,13.83
2019-06-08T04:51:21.507Z,14.10
2019-06-08T04:53:50.065Z,14.20
2019-06-08T04:56:20.192Z,14.24
2019-06-08T04:58:51.045Z,14.24
2019-06-08T05:01:18.918Z,14.34
2019-06-08T05:03:53.881Z,14.49
2019-06-08T05:06:21.562Z,14.47
2019-06-08T05:08:50.041Z,14.57
2019-06-08T05:11:20.064Z,14.53
2019-06-08T05:13:49.732Z,14.54
2019-06-08T05:16:18.475Z,14.58
2019-06-08T05:18:47.407Z,14.61
2019-06-08T05:21:15.992Z,14.59
2019-06-08T05:23:45.555Z,14.57
2019-06-08T05:26:14.415Z,14.61
2019-06-08T05:28:43.196Z,14.52
2019-06-08T05:31:11.668Z,14.57
2019-06-08T05:33:41.315Z,14.67
2019-06-08T05:36:10.082Z,14.79
2019-06-08T05:38:39.453Z,14.86
2019-06-08T05:41:08.025Z,14.87
2019-06-08T05:43:39.452Z,14.88
2019-06-08T05:46:12.932Z,14.92
2019-06-08T05:48:41.882Z,14.98
2019-06-08T05:51:10.624Z,14.79
2019-06-08T05:53:39.682Z,14.84
2019-06-08T05:56:08.323Z,14.97
2019-06-08T05:58:39.881Z,15.05
2019-06-08T06:01:08.337Z,15.18
2019-06-08T06:03:38.468Z,15.05
2019-06-08T06:06:07.143Z,14.97
2019-06-08T06:08:36.721Z,14.99
2019-06-08T06:11:05.277Z,14.93
2019-06-08T06:13:33.742Z,14.99
2019-06-08T06:16:02.240Z,14.92
2019-06-08T06:18:30.812Z,14.89
2019-06-08T06:21:10.312Z,14.87
2019-06-08T06:23:35.122Z,14.86
2019-06-08T06:26:03.667Z,14.82
2019-06-08T06:28:33.665Z,14.85
2019-06-08T06:31:02.749Z,14.80
2019-06-08T06:33:31.756Z,14.89
2019-06-08T06:36:01.683Z,14.93
2019-06-08T06:38:30.257Z,14.97
2019-06-08T06:40:59.307Z,14.87
2019-06-08T06:43:27.774Z,14.92
2019-06-08T06:45:59.800Z,14.91
2019-06-08T06:48:28.464Z,14.95
2019-06-08T06:50:57.435Z,15.06
2019-06-08T06:53:28.471Z,15.01
2019-06-08T06:55:56.862Z,15.06
2019-06-08T06:58:25.398Z,15.13
2019-06-08T07:00:53.906Z,14.98
2019-06-08T07:03:22.719Z,14.84
2019-06-08T07:05:54.413Z,14.84
2019-06-08T07:08:22.923Z,14.91
2019-06-08T07:10:51.465Z,15.13
2019-06-08T07:13:21.597Z,15.15
2019-06-08T07:15:55.915Z,15.15
2019-06-08T07:18:24.217Z,15.32
2019-06-08T07:20:52.703Z,15.40
2019-06-08T07:23:21.183Z,15.63
2019-06-08T07:25:50.432Z,15.65
2019-06-08T07:28:21.959Z,15.74
2019-06-08T07:30:52.777Z,15.44
2019-06-08T07:33:21.378Z,15.22
2019-06-08T07:35:50.440Z,15.30
2019-06-08T07:38:20.009Z,15.49
2019-06-08T07:40:50.328Z,15.71
2019-06-08T07:43:20.394Z,15.90
2019-06-08T07:45:51.914Z,15.96
2019-06-08T07:48:22.064Z,15.70
2019-06-08T07:50:54.339Z,15.61
2019-06-08T07:53:24.393Z,15.59
2019-06-08T07:55:53.493Z,15.73
2019-06-08T07:58:26.309Z,15.82
2019-06-08T08:00:59.441Z,15.57
2019-06-08T08:03:27.031Z,15.59
2019-06-08T08:05:56.608Z,15.61
2019-06-08T08:08:25.362Z,15.64
2019-06-08T08:10:54.593Z,15.93
2019-06-08T08:13:26.051Z,16.00
2019-06-08T08:15:57.358Z,15.77
2019-06-08T08:18:24.874Z,15.53
2019-06-08T08:21:00.983Z,15.39
2019-06-08T08:23:27.845Z,15.41
2019-06-08T08:26:01.693Z,15.36
2019-06-08T08:28:31.284Z,15.38
2019-06-08T08:31:01.795Z,15.30
2019-06-08T08:33:30.840Z,15.35
2019-06-08T08:36:01.713Z,15.36
2019-06-08T08:38:29.574Z,15.34
2019-06-08T08:41:06.235Z,15.32
2019-06-08T08:43:37.683Z,15.26
2019-06-08T08:46:09.269Z,15.27
2019-06-08T08:48:38.155Z,15.29
2019-06-08T08:51:08.658Z,15.37
2019-06-08T08:53:53.818Z,15.53
2019-06-08T08:56:20.119Z,15.65
2019-06-08T08:58:48.695Z,15.72
2019-06-08T09:01:20.599Z,15.73
2019-06-08T09:03:51.848Z,15.73
2019-06-08T09:06:20.209Z,15.71
2019-06-08T09:08:52.041Z,15.61
2019-06-08T09:11:22.162Z,15.73
2019-06-08T09:13:51.952Z,15.77
2019-06-08T09:16:20.787Z,15.71
2019-06-08T09:18:49.337Z,15.86
2019-06-08T09:21:18.679Z,15.75
2019-06-08T09:23:48.745Z,15.79
2019-06-08T09:26:20.029Z,16.13
2019-06-08T09:28:48.583Z,16.14
2019-06-08T09:31:18.851Z,16.37
2019-06-08T09:33:58.153Z,16.31
2019-06-08T09:36:19.660Z,16.26
2019-06-08T09:38:48.241Z,16.27
2019-06-08T09:41:18.676Z,16.26
2019-06-08T09:43:48.738Z,16.12
2019-06-08T09:46:17.937Z,16.00
2019-06-08T09:48:48.640Z,16.00
2019-06-08T09:51:18.663Z,15.93
2019-06-08T09:53:47.673Z,15.92
2019-06-08T09:56:18.602Z,15.90
2019-06-08T09:58:51.154Z,15.94
2019-06-08T10:01:18.419Z,16.03
2019-06-08T10:03:48.210Z,16.09
2019-06-08T10:06:18.449Z,16.02
2019-06-08T10:08:48.054Z,16.17
2019-06-08T10:11:18.342Z,16.17
2019-06-08T10:13:47.778Z,16.15
2019-06-08T10:16:18.358Z,16.11
2019-06-08T10:18:51.130Z,16.19
2019-06-08T10:21:18.299Z,16.17
2019-06-08T10:23:48.368Z,16.20
2019-06-08T10:26:17.849Z,16.05
2019-06-08T10:28:48.226Z,16.12
2019-06-08T10:31:17.611Z,16.28
2019-06-08T10:33:48.204Z,16.24
2019-06-08T10:36:18.296Z,16.13
2019-06-08T10:38:48.019Z,16.27
2019-06-08T10:41:21.085Z,16.23
2019-06-08T10:43:48.192Z,16.23
2019-06-08T10:46:21.069Z,16.44
2019-06-08T10:48:55.682Z,16.20
2019-06-08T10:51:24.172Z,16.16
2019-06-08T10:53:54.227Z,16.18
2019-06-08T10:56:28.401Z,16.23
2019-06-08T10:58:57.358Z,16.22
2019-06-08T11:01:28.246Z,16.31
2019-06-08T11:03:58.418Z,16.61
2019-06-08T11:06:39.930Z,16.82
2019-06-08T11:09:12.674Z,16.95
2019-06-08T11:11:41.485Z,16.92
2019-06-08T11:14:12.760Z,16.67
2019-06-08T11:16:40.076Z,16.90
2019-06-08T11:19:12.875Z,17.03
2019-06-08T11:21:43.785Z,17.21
2019-06-08T11:24:23.747Z,16.93
2019-06-08T11:26:44.383Z,16.94
2019-06-08T11:29:13.926Z,16.97
2019-06-08T11:31:43.772Z,16.98
2019-06-08T11:34:12.265Z,16.85
2019-06-08T11:36:43.035Z,16.86
2019-06-08T11:39:12.715Z,16.82
2019-06-08T11:41:40.905Z,17.11
2019-06-08T11:44:14.913Z,17.01
2019-06-08T11:46:44.698Z,17.39
2019-06-08T11:49:15.006Z,17.22
2019-06-08T11:51:43.385Z,17.59
2019-06-08T11:54:27.341Z,17.91
2019-06-08T11:56:45.216Z,17.91
2019-06-08T11:59:14.575Z,17.88
2019-06-08T12:01:44.643Z,17.73
2019-06-08T12:04:13.192Z,17.76
2019-06-08T12:06:42.796Z,18.20
2019-06-08T12:09:12.746Z,18.40
2019-06-08T12:11:44.218Z,18.49
2019-06-08T12:14:14.230Z,18.16
2019-06-08T12:16:44.382Z,18.05
2019-06-08T12:19:16.646Z,17.95
2019-06-08T12:21:43.137Z,17.93
2019-06-08T12:24:12.368Z,17.86
2019-06-08T12:26:41.144Z,17.71
2019-06-08T12:29:12.770Z,17.68
2019-06-08T12:31:40.367Z,17.56
2019-06-08T12:34:09.241Z,17.46
2019-06-08T12:36:40.148Z,17.62
2019-06-08T12:39:08.076Z,17.47
2019-06-08T12:41:37.740Z,17.73
2019-06-08T12:44:11.757Z,18.12
2019-06-08T12:46:41.360Z,18.46
2019-06-08T12:49:14.680Z,18.57
2019-06-08T12:51:50.642Z,18.36
2019-06-08T12:54:19.339Z,18.11
2019-06-08T12:56:47.977Z,17.94
2019-06-08T12:59:20.880Z,18.17
2019-06-08T13:01:48.455Z,17.85
2019-06-08T13:04:18.776Z,18.02
2019-06-08T13:06:50.041Z,17.74
2019-06-08T13:09:20.657Z,17.67
2019-06-08T13:11:50.730Z,17.59
2019-06-08T13:14:20.652Z,17.79
2019-06-08T13:16:52.973Z,17.49
2019-06-08T13:19:20.450Z,17.58
2019-06-08T13:21:48.961Z,17.74
2019-06-08T13:24:17.655Z,17.55
2019-06-08T13:26:50.436Z,17.42
2019-06-08T13:29:22.504Z,17.42
2019-06-08T13:31:51.964Z,17.44
2019-06-08T13:34:23.942Z,17.47
2019-06-08T13:36:50.743Z,17.65
2019-06-08T13:39:21.673Z,17.57
2019-06-08T13:41:52.579Z,17.52
2019-06-08T13:44:22.131Z,17.62
2019-06-08T13:46:55.011Z,17.83
2019-06-08T13:49:29.741Z,18.23
2019-06-08T13:51:59.949Z,18.39
2019-06-08T13:54:31.225Z,18.24
2019-06-08T13:56:59.682Z,18.62
2019-06-08T13:59:30.757Z,18.63
2019-06-08T14:01:58.837Z,18.78
2019-06-08T14:04:27.356Z,18.88
2019-06-08T14:06:58.211Z,18.79
2019-06-08T14:09:31.478Z,18.67
2019-06-08T14:11:58.896Z,18.76
2019-06-08T14:14:29.697Z,19.02
2019-06-08T14:17:01.166Z,19.04
2019-06-08T14:19:31.569Z,18.91
2019-06-08T14:21:59.801Z,19.26
2019-06-08T14:24:34.118Z,19.01
2019-06-08T14:27:00.859Z,19.27
2019-06-08T14:29:29.290Z,19.19
2019-06-08T14:31:58.775Z,19.11
2019-06-08T14:34:31.256Z,19.09
2019-06-08T14:36:59.890Z,18.96
2019-06-08T14:39:32.905Z,19.24
2019-06-08T14:42:01.478Z,19.17
2019-06-08T14:44:32.017Z,19.04
2019-06-08T14:47:01.767Z,19.39
2019-06-08T14:49:34.858Z,19.48
2019-06-08T14:52:01.944Z,19.77
2019-06-08T14:54:34.983Z,19.55
2019-06-08T14:57:02.178Z,19.26
2019-06-08T14:59:32.326Z,19.30
2019-06-08T15:02:00.776Z,19.04
2019-06-08T15:04:36.310Z,19.17
2019-06-08T15:06:59.662Z,19.24
2019-06-08T15:09:28.186Z,19.16
2019-06-08T15:11:58.258Z,19.29
2019-06-08T15:14:34.848Z,19.46
2019-06-08T15:17:01.234Z,19.42
2019-06-08T15:19:32.409Z,19.41
2019-06-08T15:22:00.098Z,19.26
2019-06-08T15:24:30.656Z,19.17
2019-06-08T15:27:01.624Z,19.16
2019-06-08T15:29:31.338Z,19.14
2019-06-08T15:32:00.654Z,19.17
2019-06-08T15:34:31.407Z,18.92
2019-06-08T15:36:59.312Z,19.52
2019-06-08T15:39:34.176Z,19.32
2019-06-08T15:42:02.788Z,19.29
2019-06-08T15:44:32.426Z,19.26
2019-06-08T15:47:01.530Z,19.16
2019-06-08T15:49:31.892Z,19.29
2019-06-08T15:52:02.233Z,19.25
2019-06-08T15:54:36.195Z,19.06
2019-06-08T15:57:02.294Z,19.14
2019-06-08T15:59:34.127Z,19.26
2019-06-08T16:02:01.154Z,19.06
2019-06-08T16:04:30.249Z,19.52
2019-06-08T16:07:00.351Z,19.42
2019-06-08T16:09:29.926Z,19.26
2019-06-08T16:11:59.596Z,19.14
2019-06-08T16:14:28.842Z,19.11
2019-06-08T16:16:57.413Z,19.19
2019-06-08T16:19:29.680Z,19.15
2019-06-08T16:21:59.167Z,19.05
2019-06-08T16:24:27.813Z,18.85
2019-06-08T16:26:56.234Z,18.76
2019-06-08T16:29:27.082Z,18.77
2019-06-08T16:31:55.480Z,18.57
2019-06-08T16:34:25.181Z,18.35
2019-06-08T16:36:53.719Z,18.47
2019-06-08T16:39:22.197Z,18.64
2019-06-08T16:41:50.727Z,18.93
2019-06-08T16:44:19.302Z,19.05
2019-06-08T16:46:47.766Z,19.37
2019-06-08T16:49:16.245Z,19.35
2019-06-08T16:51:44.699Z,19.35
2019-06-08T16:54:13.164Z,19.10
2019-06-08T16:56:41.690Z,18.79
2019-06-08T16:59:10.153Z,18.83
2019-06-08T17:01:41.025Z,18.76
2019-06-08T17:04:09.555Z,18.86
2019-06-08T17:06:38.027Z,18.86
2019-06-08T17:09:07.644Z,19.00
2019-06-08T17:11:36.118Z,18.84
2019-06-08T17:14:06.107Z,18.62
2019-06-08T17:16:36.357Z,18.44
2019-06-08T17:19:06.449Z,18.28
2019-06-08T17:21:36.255Z,17.63
2019-06-08T17:24:06.353Z,16.98
2019-06-08T17:26:34.925Z,16.50
2019-06-08T17:29:04.450Z,16.30
2019-06-08T17:31:37.139Z,16.18
2019-06-08T17:34:07.460Z,15.92
2019-06-08T17:36:36.514Z,15.83
2019-06-08T17:39:06.834Z,15.95
2019-06-08T17:41:36.092Z,16.07
2019-06-08T17:44:05.165Z,16.18
2019-06-08T17:46:36.527Z,16.32
2019-06-08T17:49:08.016Z,16.33
2019-06-08T17:51:37.293Z,16.38
2019-06-08T17:54:07.519Z,16.73
2019-06-08T17:56:37.145Z,16.47
2019-06-08T17:59:05.940Z,16.52
2019-06-08T18:01:35.845Z,16.64
2019-06-08T18:04:04.437Z,16.56
2019-06-08T18:06:33.641Z,16.40
2019-06-08T18:09:04.751Z,16.40
2019-06-08T18:11:33.927Z,16.20
2019-06-08T18:14:02.474Z,16.12
2019-06-08T18:16:30.925Z,16.02
2019-06-08T18:18:59.413Z,16.15
2019-06-08T18:21:29.523Z,16.22
2019-06-08T18:23:57.987Z,16.36
2019-06-08T18:26:28.094Z,16.46
2019-06-08T18:28:58.194Z,16.42
2019-06-08T18:31:27.642Z,16.26
2019-06-08T18:33:57.924Z,16.11
2019-06-08T18:36:27.620Z,16.31
2019-06-08T18:38:58.152Z,16.51
2019-06-08T18:41:27.165Z,16.52
2019-06-08T18:43:58.175Z,16.28
2019-06-08T18:46:27.187Z,16.21
2019-06-08T18:48:57.854Z,16.49
2019-06-08T18:51:30.444Z,16.42
2019-06-08T18:54:08.493Z,16.25
2019-06-08T18:56:29.101Z,16.27
2019-06-08T18:58:58.326Z,16.22
2019-06-08T19:01:27.552Z,16.12
2019-06-08T19:04:04.973Z,16.03
2019-06-08T19:06:34.232Z,15.95
2019-06-08T19:09:03.227Z,15.87
2019-06-08T19:11:31.706Z,15.80
2019-06-08T19:14:00.633Z,15.79
2019-06-08T19:16:29.082Z,15.83
2019-06-08T19:18:59.242Z,15.76
2019-06-08T19:21:28.358Z,15.66
2019-06-08T19:23:57.007Z,15.86
2019-06-08T19:26:28.396Z,15.72
2019-06-08T19:28:57.848Z,15.54
2019-06-08T19:31:27.623Z,15.50
2019-06-08T19:33:58.113Z,15.48
2019-06-08T19:36:28.394Z,15.51
2019-06-08T19:38:57.695Z,15.45
2019-06-08T19:41:28.335Z,15.37
2019-06-08T19:43:58.429Z,15.44
2019-06-08T19:46:27.155Z,15.30
2019-06-08T19:48:58.977Z,15.19
2019-06-08T19:51:30.856Z,15.24
2019-06-08T19:53:59.341Z,15.09
2019-06-08T19:56:29.469Z,15.05
2019-06-08T19:59:04.078Z,14.96
2019-06-08T20:01:28.435Z,14.97
2019-06-08T20:03:58.004Z,14.93
2019-06-08T20:06:27.842Z,14.84
2019-06-08T20:08:57.583Z,14.79
2019-06-08T20:11:26.126Z,14.72
2019-06-08T20:13:54.567Z,14.66
2019-06-08T20:16:23.101Z,14.69
2019-06-08T20:18:52.913Z,14.70
2019-06-08T20:21:21.486Z,14.63
2019-06-08T20:23:50.930Z,14.59
2019-06-08T20:26:19.535Z,14.55
2019-06-08T20:28:51.283Z,14.61
2019-06-08T20:31:19.238Z,14.48
2019-06-08T20:33:50.277Z,14.52
2019-06-08T20:36:19.363Z,14.37
2019-06-08T20:38:48.942Z,14.34
2019-06-08T20:41:20.396Z,14.37
2019-06-08T20:43:51.710Z,14.24
2019-06-08T20:46:22.323Z,14.18
2019-06-08T20:48:51.985Z,14.21
2019-06-08T20:51:21.092Z,14.17
2019-06-08T20:53:50.850Z,14.10
2019-06-08T20:56:20.848Z,14.07
2019-06-08T20:58:50.967Z,14.00
2019-06-08T21:01:21.174Z,13.95
2019-06-08T21:03:51.235Z,13.96
2019-06-08T21:06:23.667Z,13.94
2019-06-08T21:08:53.233Z,13.99
2019-06-08T21:11:27.155Z,14.07
2019-06-08T21:13:55.632Z,13.94
2019-06-08T21:16:24.094Z,13.88
2019-06-08T21:18:52.986Z,13.88
2019-06-08T21:21:23.965Z,13.85
2019-06-08T21:23:54.251Z,13.80
2019-06-08T21:26:22.976Z,13.76
2019-06-08T21:28:55.542Z,13.70
2019-06-08T21:31:24.607Z,13.76
2019-06-08T21:33:54.563Z,13.69
2019-06-08T21:36:23.335Z,13.69
2019-06-08T21:38:59.401Z,13.63
2019-06-08T21:41:27.883Z,13.65
2019-06-08T21:44:01.881Z,13.57
2019-06-08T21:46:29.214Z,13.56
2019-06-08T21:49:00.296Z,13.54
2019-06-08T21:51:27.955Z,13.61
2019-06-08T21:53:58.808Z,13.67
2019-06-08T21:56:28.078Z,13.57
2019-06-08T21:59:00.942Z,13.62
2019-06-08T22:01:31.996Z,13.53
2019-06-08T22:04:00.465Z,13.59
2019-06-08T22:06:28.949Z,13.66
2019-06-08T22:09:00.841Z,13.56
2019-06-08T22:11:27.626Z,13.52
2019-06-08T22:13:58.956Z,13.62
2019-06-08T22:16:27.498Z,13.61
2019-06-08T22:18:58.233Z,13.66
2019-06-08T22:21:28.094Z,13.55
2019-06-08T22:23:58.175Z,13.53
2019-06-08T22:26:28.248Z,13.54
2019-06-08T22:28:58.368Z,13.53
2019-06-08T22:31:29.949Z,13.53
2019-06-08T22:34:00.321Z,13.56
2019-06-08T22:36:29.899Z,13.50
2019-06-08T22:39:00.657Z,13.53
2019-06-08T22:41:28.677Z,13.46
2019-06-08T22:43:59.090Z,13.47
2019-06-08T22:46:27.388Z,13.42
2019-06-08T22:48:59.513Z,13.43
2019-06-08T22:51:27.661Z,13.48
2019-06-08T22:53:58.929Z,13.43
2019-06-08T22:56:28.328Z,13.43
2019-06-08T22:59:00.552Z,13.52
2019-06-08T23:01:27.835Z,13.42
2019-06-08T23:03:59.355Z,13.40
2019-06-08T23:06:28.065Z,13.31
2019-06-08T23:08:59.754Z,13.25
2019-06-08T23:11:28.409Z,13.23
2019-06-08T23:13:59.587Z,13.16
2019-06-08T23:16:27.343Z,13.11
2019-06-08T23:18:57.664Z,13.12
2019-06-08T23:21:27.508Z,13.15
2019-06-08T23:23:59.340Z,13.00
2019-06-08T23:26:29.550Z,12.99
2019-06-08T23:28:58.133Z,13.00
2019-06-08T23:31:29.068Z,12.94
2019-06-08T23:34:00.282Z,12.92
2019-06-08T23:36:47.148Z,12.89
2019-06-08T23:39:01.093Z,12.87
2019-06-08T23:41:29.625Z,12.77
2019-06-08T23:43:59.530Z,12.65
2019-06-08T23:46:28.086Z,12.65
2019-06-08T23:48:58.895Z,12.63
2019-06-08T23:51:27.516Z,12.59
2019-06-08T23:53:58.304Z,12.54
2019-06-08T23:56:27.765Z,12.50
2019-06-08T23:58:56.420Z,12.49
